Time;durP1;ratioP1;P1;durP2;ratioP2;P2;SDS_P1;SDS_P2;PMS_P1;PMS_P2;Temp;Humidity;BMP_temperature;BMP_pressure;BME280_temperature;BME280_humidity;BME280_pressure;Samples;Min_cycle;Max_cycle;Signal;HPM_P1;HPM_P2
2022/10/02 00:02:24;;;;;;;21.75;5.50;;;;;;;13.90;89.22;101470.53;5036417;28;20118;-74
2022/10/02 00:04:56;;;;;;;21.93;4.83;;;;;;;13.89;89.15;101468.78;5042129;28;20048;-73
2022/10/02 00:07:30;;;;;;;24.15;5.10;;;;;;;13.81;89.06;101472.88;5037987;28;20064;-73
2022/10/02 00:10:10;;;;;;;17.38;4.97;;;;;;;13.83;88.94;101470.31;5040258;28;20729;-73
2022/10/02 00:12:35;;;;;;;22.33;5.25;;;;;;;13.75;88.70;101469.28;5038216;28;20480;-74
2022/10/02 00:15:17;;;;;;;20.27;4.82;;;;;;;13.78;89.08;101472.81;5038287;28;20044;-74
2022/10/02 00:17:47;;;;;;;24.23;4.80;;;;;;;13.74;89.31;101472.69;5023637;28;20395;-74
2022/10/02 00:20:16;;;;;;;27.63;5.32;;;;;;;13.75;89.66;101477.03;5043791;28;20477;-73
2022/10/02 00:22:56;;;;;;;23.25;4.72;;;;;;;13.76;89.70;101477.06;5042410;28;20060;-74
2022/10/02 00:25:30;;;;;;;23.77;4.97;;;;;;;13.74;89.09;101472.69;5022965;28;20052;-74
2022/10/02 00:28:24;;;;;;;23.05;4.85;;;;;;;13.78;88.63;101467.66;5044096;28;20032;-74
2022/10/02 00:31:32;;;;;;;23.73;4.65;;;;;;;13.75;88.39;101472.72;5027832;28;20036;-74
2022/10/02 00:34:27;;;;;;;23.90;5.45;;;;;;;13.71;88.53;101473.50;5024096;28;20072;-74
2022/10/02 00:37:11;;;;;;;20.35;4.75;;;;;;;13.60;88.87;101480.13;5028983;28;20029;-74
2022/10/02 00:39:43;;;;;;;19.80;4.32;;;;;;;13.61;89.11;101476.69;5046128;28;20395;-74
2022/10/02 00:42:40;;;;;;;26.27;5.05;;;;;;;13.56;89.04;101473.97;5041136;28;20037;-73
2022/10/02 00:45:26;;;;;;;21.48;4.15;;;;;;;13.57;89.37;101482.59;5045653;28;20786;-74
2022/10/02 00:48:02;;;;;;;22.10;4.50;;;;;;;13.50;89.82;101478.13;5043664;28;20495;-74
2022/10/02 00:50:28;;;;;;;23.70;4.68;;;;;;;13.45;89.82;101483.16;5039445;28;20061;-74
2022/10/02 00:53:02;;;;;;;18.30;4.00;;;;;;;13.44;90.04;101483.13;5046879;28;20068;-74
2022/10/02 00:55:34;;;;;;;20.90;4.22;;;;;;;13.44;90.80;101475.38;5044874;28;20043;-74
2022/10/02 00:58:21;;;;;;;24.60;4.40;;;;;;;13.46;91.00;101479.72;5047281;28;20488;-74
2022/10/02 01:01:08;;;;;;;22.77;4.30;;;;;;;13.54;90.53;101482.53;5039517;28;20179;-74
2022/10/02 01:03:39;;;;;;;20.80;4.10;;;;;;;13.47;90.98;101473.75;5019126;28;20057;-73
2022/10/02 01:06:07;;;;;;;19.10;4.38;;;;;;;13.46;91.27;101469.41;5026006;28;20037;-74
2022/10/02 01:08:34;;;;;;;20.80;3.90;;;;;;;13.49;91.50;101478.97;5024914;28;20113;-74
2022/10/02 01:11:00;;;;;;;25.50;4.25;;;;;;;13.47;91.92;101471.19;5022505;28;20037;-74
2022/10/02 01:13:26;;;;;;;20.67;3.83;;;;;;;13.45;91.90;101472.81;5018999;28;20037;-73
2022/10/02 01:15:55;;;;;;;20.98;4.07;;;;;;;13.53;92.30;101470.44;5021908;28;20437;-72
2022/10/02 01:18:21;;;;;;;21.30;4.35;;;;;;;13.51;92.16;101478.16;5023911;28;20029;-73
2022/10/02 01:20:49;;;;;;;21.38;4.47;;;;;;;13.53;92.63;101462.69;5021214;28;20107;-73
2022/10/02 01:23:37;;;;;;;25.80;4.32;;;;;;;13.56;92.71;101470.53;5025792;28;20115;-73
2022/10/02 01:26:03;;;;;;;21.33;4.17;;;;;;;13.56;92.86;101465.34;5020082;28;20057;-73
2022/10/02 01:28:29;;;;;;;26.15;4.85;;;;;;;13.58;93.33;101474.00;5025052;28;20071;-72
2022/10/02 01:31:03;;;;;;;21.55;4.40;;;;;;;13.64;93.27;101471.59;5020709;28;20064;-72
2022/10/02 01:33:30;;;;;;;26.10;4.28;;;;;;;13.59;93.46;101479.25;5019937;28;20112;-73
2022/10/02 01:35:56;;;;;;;20.98;4.25;;;;;;;13.61;93.37;101484.44;5024131;28;20092;-72
2022/10/02 01:38:22;;;;;;;25.92;4.25;;;;;;;13.61;93.82;101481.84;5024752;28;20033;-73
2022/10/02 01:40:48;;;;;;;19.27;3.70;;;;;;;13.61;93.63;101482.72;5024426;28;20030;-73
2022/10/02 01:43:18;;;;;;;23.85;4.05;;;;;;;13.65;93.89;101478.50;5025735;28;20052;-73
2022/10/02 01:45:52;;;;;;;20.17;3.80;;;;;;;13.64;94.08;101479.34;5023801;28;20033;-73
2022/10/02 01:48:28;;;;;;;25.38;4.25;;;;;;;13.59;94.00;101486.09;5019937;28;20132;-73
2022/10/02 01:51:22;;;;;;;23.38;3.97;;;;;;;13.68;93.69;101476.00;5019269;28;20029;-73
2022/10/02 01:54:07;;;;;;;24.25;4.65;;;;;;;13.59;94.13;101483.50;5024860;28;20106;-73
2022/10/02 01:56:47;;;;;;;21.00;3.72;;;;;;;13.65;94.12;101483.66;5023077;28;20063;-73
2022/10/02 01:59:25;;;;;;;26.08;4.50;;;;;;;13.68;94.98;101486.34;5022901;28;20480;-73
2022/10/02 02:02:06;;;;;;;27.40;3.90;;;;;;;13.68;94.94;101486.34;5021517;28;20037;-73
2022/10/02 02:04:42;;;;;;;25.10;4.13;;;;;;;13.66;95.00;101473.38;5037649;28;20073;-73
2022/10/02 02:07:34;;;;;;;25.50;4.20;;;;;;;13.72;94.97;101490.75;5037079;28;20024;-74
2022/10/02 02:10:25;;;;;;;24.13;4.25;;;;;;;13.66;95.50;101493.19;5024111;28;20061;-74
2022/10/02 02:12:55;;;;;;;27.90;4.07;;;;;;;13.68;95.80;101497.56;5016568;28;20542;-74
2022/10/02 02:15:27;;;;;;;30.15;4.32;;;;;;;13.68;96.17;101500.13;5040410;28;20033;-74
2022/10/02 02:18:04;;;;;;;30.20;5.03;;;;;;;13.73;95.75;101489.06;5022749;28;20036;-74
2022/10/02 02:20:46;;;;;;;29.13;4.95;;;;;;;13.75;96.19;101490.81;5041774;28;20483;-74
2022/10/02 02:23:16;;;;;;;27.80;3.95;;;;;;;13.71;96.50;101496.78;5025515;28;20445;-74
2022/10/02 02:25:46;;;;;;;29.08;3.83;;;;;;;13.70;96.42;101495.00;5040073;28;20035;-72
2022/10/02 02:28:16;;;;;;;27.73;4.10;;;;;;;13.72;96.58;101495.94;5040662;28;20028;-71
2022/10/02 02:30:44;;;;;;;28.60;4.85;;;;;;;13.69;96.77;101482.91;5039356;28;20123;-73
2022/10/02 02:33:17;;;;;;;27.87;5.03;;;;;;;13.72;96.62;101497.66;5040184;28;20025;-72
2022/10/02 02:35:50;;;;;;;24.85;4.30;;;;;;;13.75;96.92;101497.69;5040455;28;20063;-73
2022/10/02 02:38:23;;;;;;;23.42;4.47;;;;;;;13.72;97.03;101490.75;5039760;28;20479;-73
2022/10/02 02:40:50;;;;;;;21.50;4.03;;;;;;;13.71;96.92;101491.59;5036282;28;20030;-73
2022/10/02 02:43:31;;;;;;;28.00;4.05;;;;;;;13.77;96.77;101489.16;5041237;28;20032;-73
2022/10/02 02:46:02;;;;;;;26.63;5.15;;;;;;;13.74;96.96;101486.50;5036639;28;20120;-73
2022/10/02 02:48:33;;;;;;;31.08;4.85;;;;;;;13.78;97.27;101497.78;5018792;28;20511;-73
2022/10/02 02:51:05;;;;;;;25.50;4.28;;;;;;;13.80;97.65;101499.56;5043801;28;20063;-73
2022/10/02 02:53:40;;;;;;;24.08;4.22;;;;;;;13.83;97.60;101504.84;5038721;28;20028;-73
2022/10/02 02:56:11;;;;;;;24.05;4.60;;;;;;;13.79;97.93;101492.66;5037507;28;20033;-73
2022/10/02 02:58:46;;;;;;;28.08;3.85;;;;;;;13.83;97.84;101496.16;5042709;28;20037;-73
2022/10/02 03:01:11;;;;;;;24.20;4.90;;;;;;;13.84;97.41;101503.13;5039882;28;20425;-73
2022/10/02 03:03:37;;;;;;;24.00;3.95;;;;;;;13.83;97.42;101498.75;5021156;28;20083;-73
2022/10/02 03:06:25;;;;;;;26.15;4.55;;;;;;;13.87;97.58;101493.72;5045002;28;20060;-73
2022/10/02 03:08:51;;;;;;;24.38;4.85;;;;;;;13.82;97.61;101492.72;5043330;28;20447;-73
2022/10/02 03:11:40;;;;;;;25.92;4.18;;;;;;;13.87;97.19;101488.53;5040631;28;20530;-73
2022/10/02 03:14:39;;;;;;;24.30;4.30;;;;;;;13.89;97.09;101494.66;5041056;28;20040;-73
2022/10/02 03:17:23;;;;;;;22.95;4.28;;;;;;;13.90;96.70;101496.38;5036786;28;20025;-73
2022/10/02 03:20:16;;;;;;;23.15;4.00;;;;;;;13.88;96.67;101499.75;5040453;28;20805;-73
2022/10/02 03:22:42;;;;;;;24.13;3.63;;;;;;;13.84;96.65;101496.25;5038730;28;20176;-73
2022/10/02 03:25:14;;;;;;;25.45;4.32;;;;;;;13.85;96.73;101499.69;5041778;28;20116;-73
2022/10/02 03:27:52;;;;;;;19.95;3.63;;;;;;;13.85;96.66;101495.41;5043618;28;20048;-73
2022/10/02 03:30:21;;;;;;;16.95;3.25;;;;;;;13.86;96.41;101512.66;5024148;28;20033;-73
2022/10/02 03:32:52;;;;;;;18.73;3.85;;;;;;;13.83;96.54;101504.84;5040169;28;20029;-73
2022/10/02 03:35:20;;;;;;;15.30;3.08;;;;;;;13.83;96.57;101512.59;5037035;28;20040;-73
2022/10/02 03:37:49;;;;;;;20.95;3.70;;;;;;;13.84;96.74;101506.56;5037671;28;20105;-73
2022/10/02 03:40:14;;;;;;;20.30;3.63;;;;;;;13.82;96.52;101505.63;5037301;28;20116;-73
2022/10/02 03:42:40;;;;;;;16.42;3.53;;;;;;;13.84;96.87;101513.47;5020942;28;20115;-73
2022/10/02 03:45:06;;;;;;;19.17;3.65;;;;;;;13.83;97.05;101519.44;5022217;28;20065;-73
2022/10/02 03:47:31;;;;;;;17.15;3.40;;;;;;;13.79;96.92;101512.47;5035704;28;20041;-73
2022/10/02 03:49:57;;;;;;;21.85;3.53;;;;;;;13.85;97.08;101512.63;5024208;28;20026;-73
2022/10/02 03:52:23;;;;;;;16.95;3.30;;;;;;;13.83;97.49;101509.09;5037867;28;20065;-73
2022/10/02 03:54:55;;;;;;;15.80;3.35;;;;;;;13.82;97.83;101504.78;5040271;28;20644;-73
2022/10/02 03:57:23;;;;;;;15.63;2.92;;;;;;;13.82;97.63;101513.41;5043057;28;20017;-72
2022/10/02 03:59:59;;;;;;;18.95;3.22;;;;;;;13.83;97.42;101514.28;5046571;28;20040;-72
2022/10/02 04:02:41;;;;;;;10.90;2.53;;;;;;;13.88;97.16;101515.25;5042443;28;20044;-72
2022/10/02 04:05:18;;;;;;;14.20;2.55;;;;;;;13.81;97.68;101513.38;5045579;28;20428;-72
2022/10/02 04:07:46;;;;;;;12.00;2.28;;;;;;;13.81;96.90;101506.47;5044690;28;20032;-71
2022/10/02 04:10:29;;;;;;;11.18;2.38;;;;;;;13.83;97.44;101514.28;5039550;28;20080;-72
2022/10/02 04:13:03;;;;;;;13.95;2.30;;;;;;;13.80;97.07;101512.50;5046553;28;20028;-72
2022/10/02 04:15:46;;;;;;;10.18;2.67;;;;;;;13.85;97.14;101515.22;5048183;28;20028;-72
2022/10/02 04:18:25;;;;;;;14.48;2.20;;;;;;;13.81;97.35;101506.47;5045928;28;20860;-72
2022/10/02 04:20:57;;;;;;;9.63;2.10;;;;;;;13.79;97.31;101509.88;5038820;28;20490;-72
2022/10/02 04:23:30;;;;;;;9.82;2.15;;;;;;;13.79;97.45;101510.75;5044447;28;20391;-72
2022/10/02 04:26:10;;;;;;;10.73;2.40;;;;;;;13.81;97.21;101503.91;5027711;28;20139;-72
2022/10/02 04:28:43;;;;;;;11.65;2.65;;;;;;;13.79;97.18;101500.41;5049613;28;20407;-72
2022/10/02 04:31:12;;;;;;;10.38;2.38;;;;;;;13.79;97.01;101503.00;5039467;28;20033;-72
2022/10/02 04:33:38;;;;;;;9.20;2.30;;;;;;;13.74;96.61;101507.16;5039639;28;20480;-71
2022/10/02 04:36:33;;;;;;;10.73;2.80;;;;;;;13.69;96.98;101499.28;5027551;28;20024;-72
2022/10/02 04:39:10;;;;;;;11.25;2.47;;;;;;;13.72;96.87;101502.81;5026466;28;20460;-71
2022/10/02 04:41:39;;;;;;;11.98;2.60;;;;;;;13.71;97.03;101517.44;5041281;28;20040;-71
2022/10/02 04:44:29;;;;;;;12.98;2.95;;;;;;;13.77;96.92;101524.44;5041837;28;20339;-71
2022/10/02 04:47:03;;;;;;;16.67;2.60;;;;;;;13.69;97.28;101526.84;5041595;28;20075;-71
2022/10/02 04:49:47;;;;;;;12.43;2.83;;;;;;;13.77;97.09;101546.03;5039746;28;20048;-71
2022/10/02 04:52:50;;;;;;;16.42;2.83;;;;;;;13.75;97.23;101537.34;5044570;28;20024;-71
2022/10/02 04:55:43;;;;;;;11.38;2.72;;;;;;;13.75;97.42;101542.50;5047508;28;20025;-71
2022/10/02 04:58:47;;;;;;;17.58;3.10;;;;;;;13.76;97.30;101551.13;5042790;28;20036;-71
2022/10/02 05:01:30;;;;;;;15.02;2.85;;;;;;;13.72;97.14;101550.22;5027138;28;20040;-71
2022/10/02 05:04:10;;;;;;;13.60;3.38;;;;;;;13.72;97.42;101545.03;5046031;28;20041;-71
2022/10/02 05:06:54;;;;;;;15.55;3.17;;;;;;;13.66;97.61;101540.56;5044815;28;20025;-71
2022/10/02 05:09:51;;;;;;;15.63;3.50;;;;;;;13.73;97.56;101545.91;5043952;28;20072;-71
2022/10/02 05:12:30;;;;;;;13.38;3.20;;;;;;;13.72;97.48;101550.22;5037432;28;20016;-71
2022/10/02 05:15:19;;;;;;;12.90;3.42;;;;;;;13.69;97.89;101547.53;5041245;28;20033;-71
2022/10/02 05:18:01;;;;;;;17.60;3.90;;;;;;;13.73;98.25;101545.91;5039676;28;20581;-71
2022/10/02 05:21:02;;;;;;;18.88;3.72;;;;;;;13.75;98.10;101551.97;5049982;28;20029;-71
2022/10/02 05:23:50;;;;;;;17.58;3.30;;;;;;;13.75;98.62;101550.28;5042276;28;20048;-71
2022/10/02 05:26:41;;;;;;;17.35;4.20;;;;;;;13.72;98.87;101555.38;5040484;28;20596;-71
2022/10/02 05:29:31;;;;;;;18.50;3.92;;;;;;;13.75;98.71;101557.16;5042247;28;20503;-72
2022/10/02 05:32:14;;;;;;;18.08;3.78;;;;;;;13.75;98.76;101560.59;5046305;28;20060;-71
2022/10/02 05:35:22;;;;;;;21.08;4.38;;;;;;;13.76;98.61;101566.66;5038087;28;20033;-71
2022/10/02 05:37:48;;;;;;;17.83;4.37;;;;;;;13.71;99.05;101568.22;5036978;28;20020;-71
2022/10/02 05:40:30;;;;;;;21.38;4.95;;;;;;;13.72;99.16;101576.06;5046264;28;20275;-71
2022/10/02 05:43:08;;;;;;;22.90;5.50;;;;;;;13.76;99.34;101575.28;5041609;28;20013;-71
2022/10/02 05:45:46;;;;;;;26.52;5.28;;;;;;;13.77;99.60;101578.72;5039599;28;20538;-70
2022/10/02 05:48:22;;;;;;;22.52;5.60;;;;;;;13.75;99.57;101580.41;5038654;28;20044;-71
2022/10/02 05:50:52;;;;;;;30.10;6.57;;;;;;;13.72;99.81;101580.34;5039561;28;20129;-71
2022/10/02 05:53:32;;;;;;;21.38;6.07;;;;;;;13.76;100.00;101579.56;5039100;28;20032;-71
2022/10/02 05:56:12;;;;;;;23.10;6.38;;;;;;;13.75;100.00;101581.28;5025415;28;20029;-71
2022/10/02 05:58:50;;;;;;;28.17;7.10;;;;;;;13.77;100.00;101581.31;5044663;28;20383;-71
2022/10/02 06:01:24;;;;;;;21.90;6.30;;;;;;;13.77;100.00;101579.63;5044558;28;20025;-70
2022/10/02 06:04:13;;;;;;;28.55;7.32;;;;;;;13.80;100.00;101582.28;5042538;28;20045;-71
2022/10/02 06:06:45;;;;;;;28.05;7.72;;;;;;;13.78;100.00;101581.38;5046520;28;20475;-70
2022/10/02 06:09:16;;;;;;;25.77;7.03;;;;;;;13.79;100.00;101585.72;5038290;28;20090;-71
2022/10/02 06:12:01;;;;;;;30.15;7.32;;;;;;;13.79;100.00;101592.59;5041642;28;20107;-72
2022/10/02 06:14:51;;;;;;;22.63;7.25;;;;;;;13.78;100.00;101602.06;5037980;28;20086;-71
2022/10/02 06:17:27;;;;;;;26.40;7.20;;;;;;;13.80;100.00;101612.44;5044110;28;20055;-70
2022/10/02 06:20:27;;;;;;;28.30;7.20;;;;;;;13.80;100.00;101615.88;5045057;28;20021;-71
2022/10/02 06:23:03;;;;;;;22.65;7.60;;;;;;;13.83;100.00;101617.66;5037336;28;20041;-71
2022/10/02 06:25:35;;;;;;;22.65;7.35;;;;;;;13.84;100.00;101622.03;5043799;28;20028;-71
2022/10/02 06:28:09;;;;;;;32.17;7.28;;;;;;;13.84;100.00;101622.03;5039855;28;20388;-71
2022/10/02 06:30:40;;;;;;;28.85;7.22;;;;;;;13.84;100.00;101607.41;5039795;28;20044;-71
2022/10/02 06:33:27;;;;;;;30.90;7.50;;;;;;;13.88;100.00;101605.75;5041361;28;20460;-71
2022/10/02 06:36:20;;;;;;;22.60;7.28;;;;;;;13.89;100.00;101610.97;5039993;28;20036;-71
2022/10/02 06:38:51;;;;;;;29.25;7.63;;;;;;;13.89;100.00;101613.56;5041109;28;20484;-70
2022/10/02 06:41:38;;;;;;;28.77;6.70;;;;;;;13.88;100.00;101611.78;5041024;28;20037;-71
2022/10/02 06:44:22;;;;;;;23.08;6.55;;;;;;;13.92;100.00;101615.34;5044013;28;20047;-71
2022/10/02 06:47:02;;;;;;;25.23;6.40;;;;;;;13.94;100.00;101624.88;5039577;28;20087;-71
2022/10/02 06:49:42;;;;;;;25.95;6.32;;;;;;;13.94;100.00;101621.41;5040836;28;20099;-71
2022/10/02 06:52:52;;;;;;;24.35;6.30;;;;;;;13.94;100.00;101634.34;5042423;28;20448;-70
2022/10/02 06:55:47;;;;;;;30.67;6.40;;;;;;;13.99;100.00;101637.06;4997256;28;20047;-70
2022/10/02 06:58:34;;;;;;;22.38;5.80;;;;;;;13.98;100.00;101638.78;5043716;28;20492;-70
2022/10/02 07:01:22;;;;;;;29.83;5.63;;;;;;;14.01;100.00;101649.19;5028114;28;20031;-71
2022/10/02 07:03:48;;;;;;;22.60;4.97;;;;;;;13.98;100.00;101650.84;5052182;28;20054;-71
2022/10/02 07:06:32;;;;;;;27.58;5.68;;;;;;;14.05;100.00;101640.69;5031700;28;20029;-71
2022/10/02 07:09:05;;;;;;;29.15;5.80;;;;;;;14.04;100.00;101651.88;5039110;28;20036;-71
2022/10/02 07:11:34;;;;;;;20.17;5.35;;;;;;;14.07;100.00;101653.66;5028570;28;20112;-71
2022/10/02 07:14:11;;;;;;;24.30;5.20;;;;;;;14.11;100.00;101647.72;5040295;28;20062;-71
2022/10/02 07:17:04;;;;;;;21.10;5.07;;;;;;;14.12;100.00;101649.47;5040757;28;21210;-71
2022/10/02 07:19:54;;;;;;;22.65;5.40;;;;;;;14.16;100.00;101648.72;5039671;28;20041;-71
2022/10/02 07:22:49;;;;;;;22.95;5.40;;;;;;;14.17;100.00;101647.88;5040615;28;20031;-70
2022/10/02 07:25:36;;;;;;;19.50;5.35;;;;;;;14.19;100.00;101654.84;5048474;28;20039;-70
2022/10/02 07:28:19;;;;;;;22.55;5.47;;;;;;;14.16;100.00;101667.69;5043893;28;20029;-70
2022/10/02 07:31:00;;;;;;;23.83;5.90;;;;;;;14.18;100.00;101667.75;5038530;28;20056;-70
2022/10/02 07:33:43;;;;;;;20.67;4.60;;;;;;;14.20;100.00;101669.53;5041835;28;20024;-70
2022/10/02 07:36:20;;;;;;;19.25;5.53;;;;;;;14.20;100.00;101668.69;5041294;28;20027;-69
2022/10/02 07:39:10;;;;;;;24.38;5.00;;;;;;;14.22;100.00;101673.03;5045960;28;20027;-69
2022/10/02 07:42:18;;;;;;;24.67;5.13;;;;;;;14.28;100.00;101672.31;5019744;28;20437;-69
2022/10/02 07:45:00;;;;;;;21.38;4.90;;;;;;;14.28;100.00;101661.09;5023905;28;20016;-70
2022/10/02 07:47:52;;;;;;;18.85;4.90;;;;;;;14.33;100.00;101678.50;5041387;28;20105;-71
2022/10/02 07:50:37;;;;;;;20.63;5.50;;;;;;;14.38;100.00;101674.31;5039349;28;20064;-70
2022/10/02 07:53:48;;;;;;;20.70;5.72;;;;;;;14.45;100.00;101672.75;5042028;28;20031;-70
2022/10/02 07:56:19;;;;;;;22.63;5.75;;;;;;;14.51;100.00;101682.44;5011630;28;20058;-70
2022/10/02 07:58:54;;;;;;;19.73;6.45;;;;;;;14.64;100.00;101684.47;5047138;28;20083;-69
2022/10/02 08:01:24;;;;;;;24.02;5.72;;;;;;;14.74;100.00;101683.84;5047090;28;20550;-68
2022/10/02 08:04:02;;;;;;;17.80;5.63;;;;;;;14.79;100.00;101677.06;5044810;28;20106;-69
2022/10/02 08:06:29;;;;;;;20.83;5.85;;;;;;;14.81;100.00;101685.75;5042877;28;20086;-69
2022/10/02 08:09:05;;;;;;;24.35;5.93;;;;;;;14.83;100.00;101685.78;5039880;28;20036;-69
2022/10/02 08:11:43;;;;;;;16.40;5.82;;;;;;;14.85;100.00;101703.09;5042708;28;20490;-69
2022/10/02 08:14:39;;;;;;;18.15;5.43;;;;;;;14.88;100.00;101705.78;5042667;28;20440;-69
2022/10/02 08:17:37;;;;;;;17.85;5.30;;;;;;;14.90;100.00;101709.25;5043685;28;20115;-69
2022/10/02 08:20:19;;;;;;;19.35;5.63;;;;;;;14.87;100.00;101709.22;5038537;28;20025;-69
2022/10/02 08:22:50;;;;;;;21.42;5.63;;;;;;;14.92;100.00;101719.66;5036945;28;20502;-70
2022/10/02 08:25:21;;;;;;;20.92;5.22;;;;;;;14.92;100.00;101722.25;5040173;28;20028;-69
2022/10/02 08:27:50;;;;;;;19.48;5.53;;;;;;;14.95;100.00;101720.63;5012907;28;20017;-70
2022/10/02 08:30:16;;;;;;;16.15;5.10;;;;;;;14.94;100.00;101713.69;5036715;28;20029;-70
2022/10/02 08:32:42;;;;;;;20.95;5.80;;;;;;;14.98;100.00;101720.66;5042492;28;20112;-69
2022/10/02 08:35:13;;;;;;;19.67;5.32;;;;;;;15.01;100.00;101733.72;5037507;28;20036;-70
2022/10/02 08:37:56;;;;;;;17.73;5.40;;;;;;;15.03;100.00;101731.16;5042299;28;20506;-69
2022/10/02 08:40:38;;;;;;;18.30;4.85;;;;;;;15.05;100.00;101731.22;5039149;28;20029;-70
2022/10/02 08:43:22;;;;;;;13.23;4.75;;;;;;;15.05;100.00;101742.44;5044708;28;20060;-69
2022/10/02 08:46:05;;;;;;;15.88;5.20;;;;;;;15.06;100.00;101743.31;5041840;28;20029;-69
2022/10/02 08:49:05;;;;;;;17.98;4.82;;;;;;;15.11;100.00;101745.19;5022896;28;20040;-69
2022/10/02 08:51:43;;;;;;;14.55;4.35;;;;;;;15.13;100.00;101748.66;5046025;28;20033;-69
2022/10/02 08:54:44;;;;;;;18.73;4.45;;;;;;;15.12;100.00;101743.47;5044904;28;20380;-68
2022/10/02 08:57:11;;;;;;;13.65;4.00;;;;;;;15.10;99.80;101755.47;5042215;28;20083;-70
2022/10/02 08:59:51;;;;;;;15.40;3.92;;;;;;;15.15;100.00;101759.06;5041037;28;20029;-70
2022/10/02 09:02:29;;;;;;;15.52;3.72;;;;;;;15.13;99.67;101764.22;5044790;28;20158;-70
2022/10/02 09:05:38;;;;;;;19.73;3.90;;;;;;;15.16;99.17;101771.16;5041286;28;20107;-70
2022/10/02 09:08:07;;;;;;;;;;;;;;;15.22;98.47;101776.50;5044737;28;20532;-70
2022/10/02 09:11:03;;;;;;;12.95;3.70;;;;;;;15.17;98.62;101778.13;5041219;28;19920;-69
2022/10/02 09:13:41;;;;;;;18.25;3.83;;;;;;;15.18;98.79;101783.34;5044011;28;20036;-70
2022/10/02 09:16:11;;;;;;;16.40;3.40;;;;;;;15.21;98.42;101777.34;5043275;28;20106;-69
2022/10/02 09:19:13;;;;;;;15.18;3.33;;;;;;;15.28;98.80;101780.09;5041216;28;20104;-70
2022/10/02 09:21:44;;;;;;;19.45;3.50;;;;;;;15.34;98.78;101776.78;5041404;28;20461;-70
2022/10/02 09:24:21;;;;;;;19.23;3.40;;;;;;;15.42;97.95;101779.56;5043943;28;20033;-71
2022/10/02 09:27:05;;;;;;;14.13;3.40;;;;;;;15.48;98.09;101772.81;5031490;28;20453;-71
2022/10/02 09:30:03;;;;;;;17.00;3.55;;;;;;;15.49;97.36;101776.25;5026214;28;21085;-70
2022/10/02 09:32:57;;;;;;;18.60;3.40;;;;;;;15.49;96.71;101765.91;5042323;28;20016;-69
2022/10/02 09:36:00;;;;;;;15.57;3.55;;;;;;;15.55;96.89;101786.78;5043824;28;20044;-69
2022/10/02 09:38:54;;;;;;;11.77;2.85;;;;;;;15.57;96.99;101779.91;5029446;28;20041;-69
2022/10/02 09:41:40;;;;;;;15.52;3.38;;;;;;;15.55;96.28;101779.00;5042516;28;20115;-70
2022/10/02 09:44:57;;;;;;;13.55;3.20;;;;;;;15.65;96.34;101790.47;5046540;28;20383;-70
2022/10/02 09:48:03;;;;;;;10.95;2.70;;;;;;;15.68;95.53;101790.53;5052293;28;20028;-70
2022/10/02 09:51:04;;;;;;;20.65;3.67;;;;;;;15.69;95.07;101787.09;5029134;28;20380;-70
2022/10/02 09:53:59;;;;;;;14.98;3.50;;;;;;;15.76;95.14;101791.56;5039020;28;20071;-70
2022/10/02 09:56:59;;;;;;;17.48;3.05;;;;;;;15.80;94.69;101796.88;5037276;28;20028;-70
2022/10/02 09:59:47;;;;;;;17.85;2.35;;;;;;;15.89;93.95;101798.75;5044379;28;20090;-70
2022/10/02 10:02:28;;;;;;;16.33;2.28;;;;;;;15.92;92.28;101804.03;5042250;28;20120;-70
2022/10/02 10:05:07;;;;;;;17.23;3.17;;;;;;;16.09;92.90;101796.59;5043057;28;20040;-69
2022/10/02 10:07:53;;;;;;;17.45;2.70;;;;;;;16.18;92.45;101799.38;5048745;28;20033;-70
2022/10/02 10:10:37;;;;;;;10.73;2.08;;;;;;;16.21;91.06;101798.56;5042021;28;20129;-70
2022/10/02 10:13:31;;;;;;;15.70;2.72;;;;;;;16.29;90.97;101795.28;5045218;28;20043;-70
2022/10/02 10:16:34;;;;;;;14.80;2.90;;;;;;;16.35;90.58;101800.56;5044157;28;20682;-70
2022/10/02 10:19:24;;;;;;;15.10;2.92;;;;;;;16.43;89.86;101805.91;5037736;28;20434;-69
2022/10/02 10:22:06;;;;;;;15.90;2.55;;;;;;;16.48;89.72;101806.88;5038871;28;20043;-70
2022/10/02 10:24:32;;;;;;;12.15;2.35;;;;;;;16.49;87.36;101807.75;5047658;28;20451;-70
2022/10/02 10:27:29;;;;;;;15.20;2.45;;;;;;;16.50;87.04;101815.59;5044767;28;20029;-71
2022/10/02 10:30:16;;;;;;;17.75;2.72;;;;;;;16.52;85.91;101820.81;5044370;28;20483;-71
2022/10/02 10:32:53;;;;;;;15.80;2.47;;;;;;;16.54;86.46;101819.09;5042075;28;20569;-71
2022/10/02 10:35:22;;;;;;;15.57;2.53;;;;;;;16.53;86.94;101831.22;5042350;28;20037;-71
2022/10/02 10:41:10;;;;;;;13.60;2.53;;;;;;;16.57;85.04;101835.63;5039694;28;20036;-71
2022/10/02 10:43:46;;;;;;;13.90;2.58;;;;;;;16.65;84.44;101840.06;5040306;28;20028;-71
2022/10/02 10:46:20;;;;;;;14.73;2.45;;;;;;;16.70;82.96;101844.53;5033930;28;20029;-72
2022/10/02 10:48:59;;;;;;;14.18;2.30;;;;;;;16.77;82.12;101842.94;5040714;28;20029;-71
2022/10/02 10:51:52;;;;;;;14.77;2.45;;;;;;;16.80;83.42;101848.16;5043522;28;20028;-70
2022/10/02 10:54:23;;;;;;;12.93;2.38;;;;;;;16.90;81.51;101847.50;5041774;28;20036;-70
2022/10/02 10:56:52;;;;;;;14.68;2.70;;;;;;;16.85;79.49;101843.94;5043424;28;20016;-71
2022/10/02 10:59:29;;;;;;;21.50;3.13;;;;;;;16.88;78.40;101841.41;5040835;28;20479;-70
2022/10/02 11:02:03;;;;;;;14.68;2.90;;;;;;;16.97;78.39;101849.34;5040140;28;20036;-68
2022/10/02 11:04:51;;;;;;;11.73;2.30;;;;;;;17.08;78.64;101846.94;5038675;28;20056;-68
2022/10/02 11:07:47;;;;;;;13.48;2.10;;;;;;;17.15;78.50;101839.25;5036513;28;20064;-68
2022/10/02 11:10:39;;;;;;;12.52;2.58;;;;;;;17.31;79.14;101839.53;5040678;28;20764;-69
2022/10/02 11:13:14;;;;;;;12.05;2.10;;;;;;;17.35;76.78;101843.91;5010268;28;20088;-70
2022/10/02 11:16:06;;;;;;;13.48;2.03;;;;;;;17.42;78.01;101848.38;5041090;28;20029;-70
2022/10/02 11:19:09;;;;;;;11.70;2.40;;;;;;;17.44;78.21;101851.88;5044011;28;20033;-70
2022/10/02 11:21:57;;;;;;;10.05;2.15;;;;;;;17.44;77.82;101844.06;5042298;28;20550;-70
2022/10/02 11:24:49;;;;;;;12.25;2.13;;;;;;;17.47;76.54;101851.91;5028567;28;20048;-70
2022/10/02 11:27:47;;;;;;;15.00;2.95;;;;;;;17.51;76.93;101863.22;5037103;28;20040;-70
2022/10/02 11:30:34;;;;;;;12.43;2.45;;;;;;;17.47;76.79;101857.09;5038178;28;20032;-70
2022/10/02 11:33:37;;;;;;;12.10;2.33;;;;;;;17.40;77.40;101870.84;5038333;28;20024;-70
2022/10/02 11:36:59;;;;;;;9.13;2.55;;;;;;;17.33;76.27;101869.88;5041669;28;20033;-70
2022/10/02 11:39:25;;;;;;;11.48;2.13;;;;;;;17.13;74.03;101874.75;4977784;28;20038;-70
2022/10/02 11:41:52;;;;;;;13.43;2.25;;;;;;;17.09;75.83;101877.28;4982979;28;20069;-70
2022/10/02 11:44:46;;;;;;;10.75;2.40;;;;;;;17.08;77.08;101873.81;5014997;28;20044;-70
2022/10/02 11:47:36;;;;;;;11.00;2.42;;;;;;;17.01;76.43;101873.69;5039471;28;20037;-70
2022/10/02 11:50:28;;;;;;;10.30;2.47;;;;;;;17.00;77.42;101879.72;5043547;28;20037;-70
2022/10/02 11:53:33;;;;;;;11.68;2.17;;;;;;;16.98;77.88;101874.47;5040760;28;20380;-70
2022/10/02 11:56:07;;;;;;;11.38;2.40;;;;;;;16.92;77.69;101874.38;5037649;28;20082;-70
2022/10/02 11:58:40;;;;;;;10.27;2.25;;;;;;;16.90;77.87;101876.06;5033442;28;20352;-70
2022/10/02 12:01:33;;;;;;;13.18;2.20;;;;;;;16.95;78.90;101877.03;5038060;28;20037;-70
2022/10/02 12:04:39;;;;;;;12.98;2.20;;;;;;;16.92;77.89;101882.16;5041174;28;20045;-69
2022/10/02 12:07:28;;;;;;;15.88;2.67;;;;;;;16.97;77.33;101880.53;5039444;28;20049;-69
2022/10/02 12:10:17;;;;;;;9.75;2.17;;;;;;;17.19;77.50;101888.72;5040172;28;20055;-69
2022/10/02 12:12:47;;;;;;;;;;;;;;;17.41;78.70;101888.19;5039462;28;20120;-69
2022/10/02 12:15:32;;;;;;;14.63;2.60;;;;;;;17.44;76.16;101893.47;5037910;28;20599;-69
2022/10/02 12:18:20;;;;;;;15.52;2.20;;;;;;;17.48;74.60;101894.41;5045377;28;20028;-70
2022/10/02 12:27:08;;;;;;;10.35;1.85;;;;;;;17.56;74.81;101892.78;5043765;28;20412;-70
2022/10/02 12:29:55;;;;;;;13.25;2.03;;;;;;;17.60;74.38;101895.47;5045432;28;20032;-69